Time;durP1;ratioP1;P1;durP2;ratioP2;P2;SDS_P1;SDS_P2;PMS_P1;PMS_P2;Temp;Humidity;BMP_temperature;BMP_pressure;BME280_temperature;BME280_humidity;BME280_pressure;Samples;Min_cycle;Max_cycle;Signal;HPM_P1;HPM_P2
2021/07/27 00:01:32;;;;;;;90.43;49.55;;;17.70;99.90;;;;;;4194490;28;20051;-82
2021/07/27 00:03:33;;;;;;;96.70;52.97;;;17.60;99.90;;;;;;4195090;28;20107;-81
2021/07/27 00:05:35;;;;;;;98.20;51.35;;;17.30;99.90;;;;;;4208907;28;20105;-82
2021/07/27 00:07:37;;;;;;;100.03;49.20;;;17.30;99.90;;;;;;4196739;28;20408;-81
2021/07/27 00:09:40;;;;;;;110.93;53.30;;;17.50;99.90;;;;;;4192119;28;20029;-81
2021/07/27 00:11:47;;;;;;;101.43;52.13;;;17.50;99.90;;;;;;4189583;28;20033;-81
2021/07/27 00:13:48;;;;;;;101.55;50.08;;;17.50;99.90;;;;;;4192283;28;20025;-81
2021/07/27 00:15:51;;;;;;;108.18;53.17;;;17.60;99.90;;;;;;4212102;28;20019;-80
2021/07/27 00:17:51;;;;;;;115.00;55.75;;;17.50;99.90;;;;;;4192901;28;20036;-81
2021/07/27 00:19:56;;;;;;;123.57;56.25;;;17.40;99.90;;;;;;4195660;28;20035;-81
2021/07/27 00:21:57;;;;;;;125.20;57.00;;;17.40;99.90;;;;;;4214945;28;20036;-81
2021/07/27 00:23:58;;;;;;;127.40;58.35;;;17.40;99.90;;;;;;4212311;28;20052;-79
2021/07/27 00:25:59;;;;;;;119.13;58.30;;;17.50;99.90;;;;;;4195097;28;20077;-79
2021/07/27 00:28:00;;;;;;;120.47;59.13;;;17.50;99.90;;;;;;4195134;28;20519;-79
2021/07/27 00:30:06;;;;;;;120.22;54.63;;;17.60;99.90;;;;;;4196041;28;20081;-79
2021/07/27 00:32:07;;;;;;;112.32;56.60;;;17.60;99.90;;;;;;4197550;28;20056;-79
2021/07/27 00:34:07;;;;;;;113.57;54.00;;;17.60;99.90;;;;;;4212680;28;20093;-81
2021/07/27 00:36:09;;;;;;;95.22;53.65;;;17.60;99.90;;;;;;4212062;28;20119;-80
2021/07/27 00:38:18;;;;;;;93.00;48.95;;;17.60;99.90;;;;;;4220672;28;20032;-81
2021/07/27 00:40:19;;;;;;;88.03;49.47;;;17.60;99.90;;;;;;4212149;28;20028;-79
2021/07/27 00:42:21;;;;;;;97.75;51.90;;;17.50;99.90;;;;;;4212878;28;20020;-79
2021/07/27 00:44:23;;;;;;;93.18;50.20;;;17.50;99.90;;;;;;4210783;28;20455;-79
2021/07/27 00:46:24;;;;;;;93.67;50.17;;;17.50;99.90;;;;;;4211957;28;20024;-79
2021/07/27 00:48:32;;;;;;;89.40;48.88;;;17.50;99.90;;;;;;4190525;28;20294;-81
2021/07/27 00:50:35;;;;;;;91.05;49.83;;;17.60;99.90;;;;;;4188968;28;20495;-80
2021/07/27 00:52:39;;;;;;;95.97;47.97;;;17.50;99.90;;;;;;4194249;28;20024;-79
2021/07/27 00:54:40;;;;;;;87.65;47.03;;;17.50;99.90;;;;;;4195345;28;20115;-80
2021/07/27 00:56:41;;;;;;;91.80;47.78;;;17.50;99.90;;;;;;4197387;28;20028;-80
2021/07/27 00:58:43;;;;;;;89.75;49.05;;;17.50;99.90;;;;;;4193558;28;20033;-80
2021/07/27 01:00:44;;;;;;;92.82;51.83;;;17.50;99.90;;;;;;4211373;28;20032;-79
2021/07/27 01:02:46;;;;;;;93.72;50.17;;;17.50;99.90;;;;;;4211912;28;20089;-81
2021/07/27 01:04:46;;;;;;;92.43;49.25;;;17.50;99.90;;;;;;4209497;28;20029;-80
2021/07/27 01:06:48;;;;;;;96.55;51.05;;;17.50;99.90;;;;;;4208539;28;20040;-79
2021/07/27 01:08:49;;;;;;;95.68;51.42;;;17.50;99.90;;;;;;4195234;28;20021;-80
2021/07/27 01:10:50;;;;;;;99.28;50.88;;;17.40;99.90;;;;;;4193679;28;20692;-79
2021/07/27 01:12:50;;;;;;;100.68;53.65;;;17.40;99.90;;;;;;4193912;28;20063;-79
2021/07/27 01:14:51;;;;;;;101.18;51.63;;;17.40;99.90;;;;;;4190871;28;20028;-80
2021/07/27 01:16:59;;;;;;;108.25;52.80;;;17.40;99.90;;;;;;4195015;28;20029;-79
2021/07/27 01:19:29;;;;;;;95.22;54.25;;;17.30;99.90;;;;;;4194366;28;20099;-81
2021/07/27 01:37:53;;;;;;;103.25;53.38;;;17.20;99.90;;;;;;4193978;28;20044;-80
2021/07/27 01:40:02;;;;;;;104.85;55.20;;;17.20;99.90;;;;;;4195378;28;20037;-80
2021/07/27 01:42:10;;;;;;;105.88;52.75;;;17.20;99.90;;;;;;4192146;28;20037;-79
2021/07/27 01:44:11;;;;;;;111.65;55.83;;;17.10;99.90;;;;;;4185445;28;20059;-79
2021/07/27 01:46:15;;;;;;;112.45;58.50;;;17.10;99.90;;;;;;4196224;28;20047;-78
2021/07/27 01:48:17;;;;;;;127.40;62.58;;;17.10;99.90;;;;;;4194517;28;20056;-79
2021/07/27 01:50:28;;;;;;;118.50;59.17;;;17.00;99.90;;;;;;4194022;28;20028;-79
2021/07/27 01:52:29;;;;;;;119.85;58.78;;;17.10;99.90;;;;;;4193185;28;20029;-80
2021/07/27 01:54:40;;;;;;;123.90;61.65;;;17.00;99.90;;;;;;4193355;28;20040;-79
2021/07/27 01:56:47;;;;;;;124.93;59.22;;;17.00;99.90;;;;;;4192411;28;20048;-79
2021/07/27 01:58:49;;;;;;;118.88;62.55;;;17.00;99.90;;;;;;4195922;28;20115;-79
2021/07/27 02:00:50;;;;;;;129.23;61.30;;;17.00;99.90;;;;;;4193259;28;20082;-79
2021/07/27 02:02:51;;;;;;;124.25;60.45;;;17.00;99.90;;;;;;4196197;28;20414;-79
2021/07/27 02:04:55;;;;;;;123.95;59.72;;;17.00;99.90;;;;;;4194742;28;20526;-80
2021/07/27 02:06:57;;;;;;;129.25;63.80;;;17.00;99.90;;;;;;4193493;28;20036;-79
2021/07/27 02:09:03;;;;;;;141.15;62.70;;;17.00;99.90;;;;;;4194962;28;20491;-80
2021/07/27 02:11:10;;;;;;;116.55;55.35;;;17.00;99.90;;;;;;4194257;28;20401;-79
2021/07/27 02:13:15;;;;;;;136.32;65.50;;;16.90;99.90;;;;;;4194276;28;20109;-80
2021/07/27 02:15:17;;;;;;;134.82;64.35;;;16.90;99.90;;;;;;4196759;28;20031;-79
2021/07/27 02:17:18;;;;;;;133.00;62.20;;;16.90;99.90;;;;;;4195961;28;20041;-79
2021/07/27 02:19:18;;;;;;;139.30;65.38;;;16.40;99.90;;;;;;4195520;28;20070;-79
2021/07/27 02:21:19;;;;;;;150.07;67.20;;;16.70;99.90;;;;;;4200356;28;20388;-78
2021/07/27 02:23:21;;;;;;;142.82;68.95;;;16.80;99.90;;;;;;4191093;28;20143;-79
2021/07/27 02:25:22;;;;;;;153.95;68.60;;;16.70;99.90;;;;;;4212993;28;20119;-80
2021/07/27 02:27:26;;;;;;;155.35;67.20;;;16.60;99.90;;;;;;4195799;28;20104;-79
2021/07/27 02:29:27;;;;;;;153.98;68.60;;;16.50;99.90;;;;;;4209878;28;20368;-79
2021/07/27 02:31:40;;;;;;;158.43;67.22;;;16.40;99.90;;;;;;4197107;28;20025;-79
2021/07/27 02:33:42;;;;;;;158.38;68.18;;;16.40;99.90;;;;;;4192405;28;20029;-79
2021/07/27 02:35:43;;;;;;;168.88;70.30;;;16.40;99.90;;;;;;4193657;28;20106;-80
2021/07/27 02:37:46;;;;;;;177.35;71.43;;;16.50;99.90;;;;;;4210220;28;20101;-79
2021/07/27 02:39:47;;;;;;;165.82;70.13;;;16.60;99.90;;;;;;4198745;28;20043;-80
2021/07/27 02:41:54;;;;;;;178.18;74.50;;;16.60;99.90;;;;;;4217003;28;20379;-79
2021/07/27 02:43:56;;;;;;;182.07;75.90;;;16.60;99.90;;;;;;4196135;28;20045;-79
2021/07/27 02:45:59;;;;;;;174.18;70.60;;;16.70;99.90;;;;;;4215173;28;20039;-80
2021/07/27 02:48:00;;;;;;;176.77;73.82;;;16.70;99.90;;;;;;4211227;28;20020;-80
2021/07/27 02:50:02;;;;;;;191.95;72.40;;;16.60;99.90;;;;;;4198721;28;20024;-80
2021/07/27 02:52:03;;;;;;;182.75;75.72;;;16.50;99.90;;;;;;4195111;28;20032;-80
2021/07/27 02:54:07;;;;;;;195.05;75.18;;;16.60;99.90;;;;;;4197341;28;20123;-80
2021/07/27 02:56:08;;;;;;;190.48;76.55;;;16.60;99.90;;;;;;4195113;28;20158;-79
2021/07/27 02:58:15;;;;;;;192.73;80.63;;;16.60;99.90;;;;;;4197873;28;20107;-79
2021/07/27 03:00:17;;;;;;;198.57;77.35;;;16.50;99.90;;;;;;4198376;28;20373;-79
2021/07/27 03:02:19;;;;;;;200.27;76.68;;;16.40;99.90;;;;;;4209643;28;20060;-79
2021/07/27 03:04:27;;;;;;;200.57;78.57;;;16.40;99.90;;;;;;4196234;28;20036;-79
2021/07/27 03:06:31;;;;;;;201.35;78.00;;;16.40;99.90;;;;;;4191322;28;20103;-80
2021/07/27 03:09:04;;;;;;;209.05;80.85;;;16.30;99.90;;;;;;4217519;28;20035;-79
2021/07/27 03:11:13;;;;;;;205.52;79.30;;;16.30;99.90;;;;;;4197671;28;20035;-79
2021/07/27 03:13:20;;;;;;;204.77;78.38;;;16.40;99.90;;;;;;4195698;28;20126;-79
2021/07/27 03:15:21;;;;;;;205.27;80.78;;;16.50;99.90;;;;;;4195654;28;20379;-79
2021/07/27 03:17:25;;;;;;;213.57;85.35;;;16.50;99.90;;;;;;4188221;28;20037;-80
2021/07/27 03:19:27;;;;;;;211.00;81.50;;;16.50;99.90;;;;;;4194945;28;20112;-79
2021/07/27 03:21:28;;;;;;;217.63;82.28;;;16.50;99.90;;;;;;4209504;28;20542;-79
2021/07/27 03:23:32;;;;;;;202.32;79.45;;;16.60;99.90;;;;;;4201472;28;20028;-80
2021/07/27 03:25:33;;;;;;;213.65;81.93;;;16.60;99.90;;;;;;4199026;28;20135;-80
2021/07/27 03:27:38;;;;;;;205.32;79.18;;;16.70;99.90;;;;;;4205591;28;20471;-79
2021/07/27 03:29:41;;;;;;;204.90;82.07;;;16.70;99.90;;;;;;4200352;28;20033;-80
2021/07/27 03:31:42;;;;;;;;;;;16.70;99.90;;;;;;4211814;28;20082;-79
2021/07/27 03:33:43;;;;;;;186.48;76.13;;;16.70;99.90;;;;;;4196079;28;19997;-79
2021/07/27 03:35:44;;;;;;;208.23;82.40;;;16.70;99.90;;;;;;4195707;28;20028;-79
2021/07/27 03:37:45;;;;;;;206.43;82.47;;;16.70;99.90;;;;;;4193777;28;20124;-81
2021/07/27 03:39:51;;;;;;;209.05;84.55;;;16.60;99.90;;;;;;4195872;28;20408;-80
2021/07/27 03:41:51;;;;;;;203.85;82.18;;;16.60;99.90;;;;;;4212726;28;20047;-79
2021/07/27 03:43:53;;;;;;;202.20;83.63;;;16.70;99.90;;;;;;4195000;28;20170;-80
2021/07/27 03:45:55;;;;;;;212.68;86.35;;;16.60;99.90;;;;;;4196177;28;20071;-79
2021/07/27 03:47:57;;;;;;;186.32;79.70;;;16.60;99.90;;;;;;4213669;28;20020;-80
2021/07/27 03:49:58;;;;;;;192.68;81.15;;;16.70;99.90;;;;;;4190643;28;20052;-80
2021/07/27 03:52:03;;;;;;;185.73;76.70;;;16.80;99.90;;;;;;4213563;28;20391;-80
2021/07/27 03:54:03;;;;;;;193.60;84.63;;;16.80;99.90;;;;;;4193248;28;20032;-80
2021/07/27 03:56:13;;;;;;;189.68;77.78;;;16.80;99.90;;;;;;4212364;28;20029;-77
2021/07/27 03:58:16;;;;;;;173.98;82.90;;;16.80;99.90;;;;;;4196945;28;20127;-80
2021/07/27 04:00:17;;;;;;;181.40;79.82;;;16.70;99.90;;;;;;4196203;28;20031;-81
2021/07/27 04:02:18;;;;;;;166.30;76.45;;;16.80;99.90;;;;;;4195841;28;20029;-79
2021/07/27 04:04:20;;;;;;;162.77;74.10;;;16.60;99.90;;;;;;4194122;28;20578;-79
2021/07/27 04:06:20;;;;;;;176.70;78.63;;;16.70;99.90;;;;;;4194270;28;20484;-79
2021/07/27 04:08:21;;;;;;;140.10;66.60;;;16.70;99.90;;;;;;4196129;28;20075;-80
2021/07/27 04:10:22;;;;;;;146.32;73.85;;;16.80;99.90;;;;;;4194766;28;20108;-79
2021/07/27 04:12:22;;;;;;;152.15;73.10;;;16.90;99.90;;;;;;4195774;28;20032;-79
2021/07/27 04:14:23;;;;;;;144.05;71.18;;;16.80;99.90;;;;;;4193603;28;20037;-79
2021/07/27 04:16:36;;;;;;;136.27;63.40;;;17.00;99.90;;;;;;4193547;28;20990;-80
2021/07/27 04:18:38;;;;;;;124.05;65.82;;;16.90;99.90;;;;;;4211610;28;20035;-79
2021/07/27 04:20:39;;;;;;;128.63;65.28;;;17.00;99.90;;;;;;4195243;28;20025;-80
2021/07/27 04:22:39;;;;;;;130.48;65.47;;;16.90;99.90;;;;;;4213057;28;20028;-80
2021/07/27 04:24:41;;;;;;;126.90;66.32;;;16.80;99.90;;;;;;4211229;28;20024;-80
2021/07/27 04:26:48;;;;;;;127.47;63.35;;;16.70;99.90;;;;;;4196051;28;20380;-80
2021/07/27 04:28:49;;;;;;;133.82;67.18;;;16.70;99.90;;;;;;4217925;28;20043;-80
2021/07/27 04:30:54;;;;;;;98.80;48.22;;;16.60;99.90;;;;;;4212225;28;20016;-81
2021/07/27 04:32:55;;;;;;;121.18;62.53;;;16.70;99.90;;;;;;4192679;28;20108;-81
2021/07/27 04:34:57;;;;;;;121.78;64.78;;;16.70;99.90;;;;;;4208668;28;20452;-79
2021/07/27 04:36:58;;;;;;;122.75;60.15;;;16.60;99.90;;;;;;4192580;28;20135;-80
2021/07/27 04:39:05;;;;;;;119.40;58.92;;;16.60;99.90;;;;;;4192714;28;20480;-80
2021/07/27 04:41:10;;;;;;;120.45;60.30;;;16.60;99.90;;;;;;4212165;28;20032;-80
2021/07/27 04:43:17;;;;;;;120.18;64.97;;;16.60;99.90;;;;;;4196659;28;20029;-79
2021/07/27 04:45:19;;;;;;;121.47;63.38;;;16.60;99.90;;;;;;4195309;28;20479;-80
2021/07/27 04:47:23;;;;;;;117.70;61.47;;;16.60;99.90;;;;;;4194471;28;20033;-80
2021/07/27 04:49:25;;;;;;;116.80;57.80;;;16.70;99.90;;;;;;4196958;28;20063;-80
2021/07/27 04:51:29;;;;;;;111.93;60.50;;;16.70;99.90;;;;;;4197095;28;20048;-80
2021/07/27 04:53:33;;;;;;;;;;;16.80;99.90;;;;;;4192167;28;20495;-79
2021/07/27 04:55:34;;;;;;;110.35;57.05;;;16.80;99.90;;;;;;4204887;28;19923;-79
2021/07/27 04:57:36;;;;;;;103.32;57.30;;;16.80;99.90;;;;;;4195042;28;20028;-79
2021/07/27 04:59:43;;;;;;;106.45;57.70;;;16.80;99.90;;;;;;4196516;28;20036;-80
2021/07/27 05:01:44;;;;;;;105.00;56.83;;;16.80;99.90;;;;;;4195833;28;20062;-81
2021/07/27 05:03:45;;;;;;;99.50;54.47;;;16.90;99.90;;;;;;4194163;28;20527;-82
2021/07/27 05:05:47;;;;;;;102.88;53.55;;;16.90;99.90;;;;;;4193345;28;20390;-80
2021/07/27 05:07:54;;;;;;;91.40;53.15;;;16.90;99.90;;;;;;4193584;28;20603;-79
2021/07/27 05:10:04;;;;;;;85.80;52.03;;;16.90;99.90;;;;;;4213579;28;20039;-79
2021/07/27 05:12:07;;;;;;;88.10;54.60;;;17.00;99.90;;;;;;4207375;28;20036;-80
2021/07/27 05:14:07;;;;;;;76.30;50.38;;;17.00;99.90;;;;;;4195310;28;20032;-80
2021/07/27 05:16:11;;;;;;;77.43;50.40;;;17.10;99.90;;;;;;4212024;28;20040;-79
2021/07/27 05:18:15;;;;;;;71.63;47.28;;;17.20;99.90;;;;;;4193993;28;20048;-80
2021/07/27 05:20:19;;;;;;;71.93;48.35;;;17.20;99.90;;;;;;4210750;28;20051;-79
2021/07/27 05:22:23;;;;;;;66.88;45.03;;;17.30;99.90;;;;;;4200492;28;20115;-80
2021/07/27 05:24:26;;;;;;;67.25;45.25;;;17.30;99.90;;;;;;4193471;28;20033;-80
2021/07/27 05:26:28;;;;;;;68.72;48.25;;;17.30;99.90;;;;;;4188727;28;20087;-78
2021/07/27 05:28:30;;;;;;;61.40;44.55;;;17.40;99.90;;;;;;4189833;28;20021;-79
2021/07/27 05:30:32;;;;;;;63.65;45.63;;;17.40;99.90;;;;;;4194334;28;20034;-80
2021/07/27 05:32:43;;;;;;;60.53;42.50;;;17.40;99.90;;;;;;4194917;28;20044;-80
2021/07/27 05:34:45;;;;;;;63.65;43.00;;;17.50;99.90;;;;;;4192323;28;20400;-79
2021/07/27 05:36:48;;;;;;;56.70;42.92;;;17.50;99.90;;;;;;4189111;28;20035;-80
2021/07/27 05:38:53;;;;;;;52.72;40.33;;;17.60;99.90;;;;;;4193100;28;20033;-80
2021/07/27 05:40:54;;;;;;;58.30;40.30;;;17.60;99.90;;;;;;4194959;28;20029;-79
2021/07/27 05:42:57;;;;;;;50.40;38.05;;;17.70;99.90;;;;;;4191743;28;20093;-79
2021/07/27 05:44:58;;;;;;;48.47;37.95;;;17.80;99.90;;;;;;4191708;28;20039;-81
2021/07/27 05:47:01;;;;;;;47.40;37.67;;;17.90;99.90;;;;;;4191684;28;20496;-79
2021/07/27 05:49:04;;;;;;;52.88;40.10;;;17.90;99.90;;;;;;4192433;28;20036;-81
2021/07/27 05:51:04;;;;;;;56.20;40.78;;;17.90;99.90;;;;;;4196728;28;20043;-80
2021/07/27 05:53:11;;;;;;;52.92;39.40;;;17.90;99.90;;;;;;4195569;28;22765;-81
2021/07/27 05:55:12;;;;;;;52.55;39.22;;;17.90;99.90;;;;;;4189824;28;20340;-79
2021/07/27 05:57:14;;;;;;;53.67;39.03;;;17.90;99.90;;;;;;4192068;28;20078;-79
2021/07/27 05:59:23;;;;;;;50.38;38.08;;;17.70;99.90;;;;;;4191062;28;20021;-76
2021/07/27 06:01:23;;;;;;;51.45;36.83;;;17.90;99.90;;;;;;4201932;28;20035;-80
2021/07/27 06:03:25;;;;;;;57.40;41.58;;;17.70;99.90;;;;;;4195698;28;20108;-80
2021/07/27 06:05:26;;;;;;;51.67;39.33;;;17.70;99.90;;;;;;4192491;28;20082;-80
2021/07/27 06:07:29;;;;;;;46.85;36.55;;;17.60;99.90;;;;;;4189334;28;20029;-79
2021/07/27 06:09:35;;;;;;;;;;;17.80;99.90;;;;;;4196673;28;20055;-80
2021/07/27 06:11:37;;;;;;;51.45;34.95;;;17.90;99.90;;;;;;4195802;28;19909;-79
2021/07/27 06:13:38;;;;;;;47.15;36.25;;;17.90;99.90;;;;;;4192722;28;20156;-79
2021/07/27 06:15:39;;;;;;;49.13;36.72;;;17.80;99.90;;;;;;4197998;28;20029;-78
2021/07/27 06:17:39;;;;;;;56.80;36.28;;;17.90;99.90;;;;;;4191382;28;20356;-77
2021/07/27 06:19:42;;;;;;;50.40;37.20;;;17.90;99.90;;;;;;4195937;28;20515;-81
2021/07/27 06:21:42;;;;;;;47.13;36.30;;;18.10;99.90;;;;;;4196242;28;20127;-79
2021/07/27 06:23:44;;;;;;;44.00;32.15;;;18.50;99.90;;;;;;4195351;28;21418;-78
2021/07/27 06:25:46;;;;;;;52.65;33.97;;;18.40;99.90;;;;;;4196227;28;20076;-80
2021/07/27 06:27:47;;;;;;;45.28;34.58;;;18.30;99.90;;;;;;4196746;28;20033;-81
2021/07/27 06:29:49;;;;;;;43.97;31.73;;;18.60;99.90;;;;;;4199409;28;20037;-78
2021/07/27 06:31:50;;;;;;;42.97;34.72;;;18.50;99.90;;;;;;4196973;28;20036;-77
2021/07/27 06:33:51;;;;;;;37.22;30.58;;;18.60;99.90;;;;;;4191181;28;20040;-78
2021/07/27 06:35:59;;;;;;;39.25;31.27;;;18.60;99.90;;;;;;4196831;28;20033;-78
2021/07/27 06:38:02;;;;;;;39.92;32.58;;;18.90;99.90;;;;;;4191821;28;20039;-79
2021/07/27 06:40:06;;;;;;;38.83;30.67;;;19.10;99.90;;;;;;4197681;28;20529;-78
2021/07/27 06:42:08;;;;;;;41.25;30.30;;;19.10;99.90;;;;;;4196215;28;20032;-78
2021/07/27 06:44:09;;;;;;;38.15;30.30;;;18.90;99.90;;;;;;4192238;28;20055;-78
2021/07/27 06:46:11;;;;;;;40.78;29.73;;;18.80;99.90;;;;;;4196711;28;20108;-78
2021/07/27 06:48:12;;;;;;;39.03;30.75;;;19.50;99.90;;;;;;4194954;28;20040;-78
2021/07/27 06:50:13;;;;;;;59.88;26.13;;;19.20;99.90;;;;;;4193986;28;20032;-79
2021/07/27 06:52:14;;;;;;;33.67;27.27;;;19.80;99.90;;;;;;4197689;28;20053;-79
2021/07/27 06:54:14;;;;;;;36.35;29.08;;;20.00;99.90;;;;;;4197258;28;20101;-79
2021/07/27 06:56:15;;;;;;;34.63;27.17;;;20.00;99.90;;;;;;4195657;28;20492;-79
2021/07/27 06:58:16;;;;;;;37.15;28.35;;;20.00;99.90;;;;;;4198514;28;20033;-79
2021/07/27 07:00:18;;;;;;;31.30;26.80;;;20.10;99.90;;;;;;4195395;28;20049;-79
2021/07/27 07:02:20;;;;;;;37.13;29.70;;;20.20;99.90;;;;;;4193753;28;20029;-79
2021/07/27 07:04:21;;;;;;;35.17;28.98;;;20.20;99.90;;;;;;4200235;28;20032;-78
2021/07/27 07:06:21;;;;;;;38.75;31.55;;;20.00;99.90;;;;;;4198805;28;20032;-79
2021/07/27 07:08:22;;;;;;;40.40;31.65;;;20.10;99.90;;;;;;4198233;28;20051;-80
2021/07/27 07:10:24;;;;;;;38.47;30.63;;;20.20;99.90;;;;;;4197078;28;20487;-79
2021/07/27 07:12:26;;;;;;;34.40;29.02;;;20.40;99.90;;;;;;4189710;28;20392;-79
2021/07/27 07:14:27;;;;;;;35.05;30.25;;;20.20;99.90;;;;;;4198305;28;20075;-81
2021/07/27 07:16:28;;;;;;;36.58;30.90;;;20.30;99.90;;;;;;4198349;28;20028;-80
2021/07/27 07:18:29;;;;;;;42.25;30.17;;;20.00;99.90;;;;;;4197858;28;20053;-80
2021/07/27 07:20:30;;;;;;;33.33;28.45;;;19.90;99.90;;;;;;4196717;28;20029;-80
2021/07/27 07:22:31;;;;;;;34.03;29.48;;;19.90;99.90;;;;;;4204786;28;20035;-81
2021/07/27 07:24:32;;;;;;;37.80;29.73;;;19.60;99.90;;;;;;4196480;28;20032;-79
2021/07/27 07:26:33;;;;;;;35.03;29.33;;;19.70;99.90;;;;;;4193367;28;20039;-81
2021/07/27 07:28:35;;;;;;;34.53;28.77;;;19.60;99.90;;;;;;4193254;28;20039;-80
2021/07/27 07:30:35;;;;;;;34.70;29.33;;;19.80;99.90;;;;;;4191593;28;20037;-80
2021/07/27 07:32:36;;;;;;;35.45;30.00;;;19.70;99.90;;;;;;4191193;28;20024;-79
2021/07/27 07:34:36;;;;;;;36.60;28.92;;;20.00;99.90;;;;;;4199456;28;20360;-78
2021/07/27 07:36:37;;;;;;;32.35;28.45;;;20.00;99.90;;;;;;4194669;28;20049;-78
2021/07/27 07:38:39;;;;;;;33.08;27.70;;;20.40;99.90;;;;;;4198346;28;20033;-78
2021/07/27 07:40:40;;;;;;;40.38;29.75;;;20.60;99.90;;;;;;4193074;28;20392;-78
2021/07/27 07:42:47;;;;;;;38.72;29.02;;;20.60;99.90;;;;;;4197197;28;20036;-78
2021/07/27 07:44:47;;;;;;;32.90;28.63;;;20.50;99.90;;;;;;4191212;28;20029;-78
2021/07/27 07:46:48;;;;;;;34.38;28.90;;;20.70;99.90;;;;;;4195954;28;20420;-78
2021/07/27 07:48:49;;;;;;;35.03;29.13;;;20.70;99.90;;;;;;4196423;28;20128;-78
2021/07/27 07:50:55;;;;;;;34.63;30.65;;;20.80;99.90;;;;;;4196075;28;20029;-78
2021/07/27 07:53:04;;;;;;;36.25;29.55;;;20.60;99.90;;;;;;4196311;28;20036;-78
2021/07/27 07:55:06;;;;;;;33.92;29.65;;;20.50;99.90;;;;;;4197521;28;20055;-79
2021/07/27 07:57:07;;;;;;;35.92;30.35;;;20.40;99.90;;;;;;4193245;28;20059;-79
2021/07/27 07:59:07;;;;;;;36.15;30.58;;;20.40;99.90;;;;;;4197798;28;20032;-78
2021/07/27 08:01:09;;;;;;;36.83;31.13;;;20.30;99.90;;;;;;4196796;28;20499;-77
2021/07/27 08:03:10;;;;;;;35.42;31.70;;;20.20;99.90;;;;;;4194425;28;20041;-78
2021/07/27 08:05:12;;;;;;;35.83;31.45;;;20.30;99.90;;;;;;4196367;28;20052;-86
2021/07/27 08:07:12;;;;;;;36.80;31.55;;;20.40;99.90;;;;;;4196669;28;20076;-86
2021/07/27 08:09:14;;;;;;;37.45;31.10;;;20.30;99.90;;;;;;4194664;28;20399;-85
2021/07/27 08:11:15;;;;;;;37.78;32.05;;;20.40;99.90;;;;;;4196625;28;20123;-84
2021/07/27 08:13:16;;;;;;;36.65;31.58;;;20.30;99.90;;;;;;4196946;28;20483;-84
2021/07/27 08:15:18;;;;;;;37.97;33.90;;;20.40;99.90;;;;;;4189216;28;20064;-84
2021/07/27 08:17:19;;;;;;;38.45;32.35;;;20.60;99.90;;;;;;4196306;28;20059;-84
2021/07/27 08:19:19;;;;;;;39.42;33.78;;;20.80;99.90;;;;;;4194004;28;20029;-85
2021/07/27 08:21:24;;;;;;;38.55;33.10;;;21.00;99.90;;;;;;4196053;28;20090;-84
2021/07/27 08:23:24;;;;;;;38.75;33.40;;;21.20;99.90;;;;;;4193647;28;20789;-85
2021/07/27 08:25:25;;;;;;;37.70;32.42;;;21.30;99.90;;;;;;4195551;28;20124;-84
2021/07/27 08:27:31;;;;;;;33.28;29.75;;;21.30;99.90;;;;;;4195695;28;20416;-84
2021/07/27 08:29:38;;;;;;;36.95;30.98;;;21.20;99.90;;;;;;4195341;28;20028;-83
2021/07/27 08:31:40;;;;;;;34.30;29.88;;;21.10;99.90;;;;;;4187732;28;20573;-81
2021/07/27 08:33:42;;;;;;;33.15;29.65;;;21.20;99.90;;;;;;4195943;28;20051;-84
2021/07/27 08:35:43;;;;;;;34.00;30.38;;;21.30;99.90;;;;;;4192888;28;20038;-85
2021/07/27 08:37:45;;;;;;;34.13;28.13;;;21.30;99.90;;;;;;4191196;28;20029;-86
2021/07/27 08:39:46;;;;;;;34.73;28.27;;;21.60;99.90;;;;;;4188506;28;20091;-83
2021/07/27 08:41:50;;;;;;;30.73;27.13;;;22.20;99.90;;;;;;4184454;28;20033;-86
2021/07/27 08:43:51;;;;;;;29.40;25.98;;;22.50;99.90;;;;;;4197383;28;20373;-84
2021/07/27 08:46:00;;;;;;;31.60;26.67;;;22.70;99.90;;;;;;4195850;28;20048;-85
2021/07/27 08:48:01;;;;;;;33.60;28.38;;;22.80;99.90;;;;;;4194717;28;20170;-85
2021/07/27 08:50:05;;;;;;;30.98;26.02;;;22.50;99.90;;;;;;4193177;28;20031;-83
2021/07/27 08:52:08;;;;;;;29.52;25.27;;;22.20;99.90;;;;;;4195781;28;20036;-83
2021/07/27 08:54:09;;;;;;;32.80;27.00;;;21.60;99.90;;;;;;4194425;28;20045;-85
2021/07/27 08:56:11;;;;;;;30.65;25.98;;;22.80;99.90;;;;;;4191477;28;20399;-84
2021/07/27 08:58:15;;;;;;;32.17;26.20;;;23.00;99.90;;;;;;4194721;28;20037;-83
2021/07/27 09:00:16;;;;;;;31.75;26.17;;;23.20;99.90;;;;;;4192604;28;20139;-83
2021/07/27 09:02:38;;;;;;;29.35;26.00;;;23.40;99.90;;;;;;4194416;28;20028;-82
2021/07/27 09:04:39;;;;;;;32.88;26.75;;;23.70;99.90;;;;;;4193430;28;20464;-83
2021/07/27 09:06:40;;;;;;;28.00;24.58;;;23.70;99.90;;;;;;4192361;28;20028;-84
2021/07/27 09:08:41;;;;;;;28.80;25.77;;;23.50;99.90;;;;;;4194652;28;20496;-85
2021/07/27 09:10:43;;;;;;;26.75;24.05;;;23.70;99.90;;;;;;4176845;28;20500;-84
2021/07/27 09:13:00;;;;;;;28.48;25.42;;;23.70;99.90;;;;;;4183494;28;20025;-85
2021/07/27 09:15:05;;;;;;;29.63;24.63;;;24.00;99.90;;;;;;4189300;28;20120;-85
2021/07/27 09:17:07;;;;;;;27.45;23.40;;;24.00;99.90;;;;;;4193388;28;20025;-83
2021/07/27 09:19:09;;;;;;;31.45;25.20;;;24.10;99.90;;;;;;4203841;28;20060;-83
2021/07/27 09:21:21;;;;;;;27.00;23.70;;;24.00;99.90;;;;;;4196000;28;20048;-84
2021/07/27 09:23:26;;;;;;;27.20;24.15;;;24.10;99.90;;;;;;4194424;28;20043;-86
2021/07/27 09:25:28;;;;;;;26.20;23.40;;;24.50;99.90;;;;;;4194455;28;20423;-84
2021/07/27 09:27:29;;;;;;;27.13;24.45;;;24.60;99.90;;;;;;4212338;28;20052;-84
2021/07/27 09:29:30;;;;;;;26.35;23.65;;;24.40;99.90;;;;;;4190276;28;20028;-84
2021/07/27 09:31:32;;;;;;;26.48;23.67;;;23.90;99.90;;;;;;4193607;28;20452;-84
2021/07/27 09:33:35;;;;;;;24.83;22.23;;;23.80;99.90;;;;;;4213199;28;20107;-83
2021/07/27 09:35:38;;;;;;;26.48;22.75;;;23.80;99.90;;;;;;4183564;28;20409;-83
2021/07/27 09:37:39;;;;;;;;;;;23.50;99.90;;;;;;4209313;28;20468;-84
2021/07/27 09:39:40;;;;;;;29.08;23.95;;;23.40;99.90;;;;;;4211753;28;19965;-84
2021/07/27 09:41:42;;;;;;;28.35;23.63;;;23.60;99.90;;;;;;4190799;28;20037;-83
2021/07/27 09:43:43;;;;;;;27.17;24.58;;;23.50;99.90;;;;;;4210546;28;20378;-83
2021/07/27 09:45:49;;;;;;;26.00;23.20;;;23.30;99.90;;;;;;4210832;28;20115;-83
2021/07/27 09:47:52;;;;;;;28.10;22.98;;;23.40;99.90;;;;;;4203352;28;20600;-83
2021/07/27 09:49:53;;;;;;;24.92;22.15;;;23.50;99.90;;;;;;4204818;28;20028;-82
2021/07/27 09:51:56;;;;;;;25.92;23.20;;;23.70;99.90;;;;;;4212490;28;20032;-83
2021/07/27 09:53:57;;;;;;;26.10;23.40;;;23.80;99.90;;;;;;4218781;28;20028;-84
2021/07/27 09:55:58;;;;;;;25.45;22.73;;;23.50;99.90;;;;;;4190038;28;20078;-84
2021/07/27 09:58:00;;;;;;;25.73;23.25;;;23.50;99.90;;;;;;4195298;28;20036;-83
2021/07/27 10:00:01;;;;;;;28.67;22.58;;;23.40;99.90;;;;;;4188683;28;20025;-83
2021/07/27 10:02:07;;;;;;;24.20;21.70;;;23.40;99.90;;;;;;4157854;28;20369;-81
2021/07/27 10:04:08;;;;;;;27.02;23.20;;;23.40;99.90;;;;;;4200564;28;20056;-84
2021/07/27 10:06:09;;;;;;;27.65;23.48;;;23.20;99.90;;;;;;4210855;28;20036;-83
2021/07/27 10:08:10;;;;;;;24.60;22.15;;;22.90;99.90;;;;;;4209466;28;20028;-83
2021/07/27 10:10:12;;;;;;;27.52;24.13;;;22.70;99.90;;;;;;4212681;28;20028;-83
2021/07/27 10:12:14;;;;;;;28.15;25.08;;;22.50;99.90;;;;;;4206869;28;20032;-81
2021/07/27 10:14:16;;;;;;;31.05;25.38;;;22.20;99.90;;;;;;4205821;28;20033;-82
2021/07/27 10:16:25;;;;;;;26.90;24.10;;;22.30;99.90;;;;;;4193696;28;20059;-82
2021/07/27 10:18:34;;;;;;;28.92;25.77;;;22.50;99.90;;;;;;4209018;28;20041;-83
2021/07/27 10:20:34;;;;;;;28.30;25.45;;;22.50;99.90;;;;;;4207552;28;20024;-84
2021/07/27 10:22:37;;;;;;;28.42;25.55;;;22.50;99.90;;;;;;4175532;28;20507;-81
2021/07/27 10:24:46;;;;;;;28.95;26.02;;;22.60;99.90;;;;;;4209906;28;20032;-86
2021/07/27 10:26:48;;;;;;;31.13;27.90;;;22.60;99.90;;;;;;4203731;28;20039;-86
2021/07/27 10:28:53;;;;;;;30.85;27.58;;;22.10;99.90;;;;;;4213117;28;20027;-84
2021/07/27 10:31:07;;;;;;;30.38;27.33;;;22.10;99.90;;;;;;4194829;28;20040;-86
2021/07/27 10:33:09;;;;;;;29.83;26.75;;;22.10;99.90;;;;;;4206771;28;20031;-84
2021/07/27 10:35:53;;;;;;;31.15;28.05;;;22.00;99.90;;;;;;4210908;28;20036;-85
2021/07/27 10:38:12;;;;;;;31.60;28.53;;;22.20;99.90;;;;;;4199751;28;20032;-84
2021/07/27 10:40:30;;;;;;;27.83;25.05;;;22.80;99.90;;;;;;4210936;28;20290;-84